sensor_id;sensor_type;location;lat;lon;timestamp;pressure;altitude;pressure_sealevel;temperature;humidity
49342;BME280;35210;41.606;-87.602;2022-11-15T00:01:23;100480.22;;;7.45;39.49
49342;BME280;35210;41.606;-87.602;2022-11-15T00:03:52;100469.38;;;7.34;39.98
49342;BME280;35210;41.606;-87.602;2022-11-15T00:06:20;100472.09;;;7.32;40.40
49342;BME280;35210;41.606;-87.602;2022-11-15T00:08:49;100460.81;;;7.11;40.81
49342;BME280;35210;41.606;-87.602;2022-11-15T00:11:18;100475.22;;;7.03;41.02
49342;BME280;35210;41.606;-87.602;2022-11-15T00:13:48;100475.78;;;7.09;41.16
49342;BME280;35210;41.606;-87.602;2022-11-15T00:16:16;100479.19;;;7.11;41.07
49342;BME280;35210;41.606;-87.602;2022-11-15T00:18:45;100476.34;;;6.97;41.54
49342;BME280;35210;41.606;-87.602;2022-11-15T00:21:13;100471.28;;;6.92;41.03
49342;BME280;35210;41.606;-87.602;2022-11-15T00:23:42;100466.53;;;6.82;41.10
49342;BME280;35210;41.606;-87.602;2022-11-15T00:26:12;100469.50;;;6.74;41.45
49342;BME280;35210;41.606;-87.602;2022-11-15T00:28:42;100474.94;;;6.70;41.24
49342;BME280;35210;41.606;-87.602;2022-11-15T00:31:12;100468.19;;;6.45;42.49
49342;BME280;35210;41.606;-87.602;2022-11-15T00:33:43;100469.09;;;6.44;42.30
49342;BME280;35210;41.606;-87.602;2022-11-15T00:36:13;100475.53;;;6.17;43.13
49342;BME280;35210;41.606;-87.602;2022-11-15T00:38:41;100466.09;;;6.13;43.61
49342;BME280;35210;41.606;-87.602;2022-11-15T00:41:09;100461.00;;;5.88;43.92
49342;BME280;35210;41.606;-87.602;2022-11-15T00:43:37;100460.84;;;5.92;44.12
49342;BME280;35210;41.606;-87.602;2022-11-15T00:46:06;100459.72;;;5.98;44.58
49342;BME280;35210;41.606;-87.602;2022-11-15T00:48:37;100462.63;;;5.92;44.43
49342;BME280;35210;41.606;-87.602;2022-11-15T00:51:05;100459.63;;;5.79;44.34
49342;BME280;35210;41.606;-87.602;2022-11-15T00:53:33;100457.19;;;5.75;44.97
49342;BME280;35210;41.606;-87.602;2022-11-15T00:56:01;100448.66;;;5.91;44.41
49342;BME280;35210;41.606;-87.602;2022-11-15T00:58:29;100460.47;;;5.80;44.63
49342;BME280;35210;41.606;-87.602;2022-11-15T01:01:05;100460.25;;;5.64;44.91
49342;BME280;35210;41.606;-87.602;2022-11-15T01:03:33;100452.06;;;5.50;45.49
49342;BME280;35210;41.606;-87.602;2022-11-15T01:06:03;100451.88;;;5.33;45.90
49342;BME280;35210;41.606;-87.602;2022-11-15T01:08:31;100427.78;;;5.46;45.26
49342;BME280;35210;41.606;-87.602;2022-11-15T01:11:03;100428.75;;;5.44;45.31
49342;BME280;35210;41.606;-87.602;2022-11-15T01:13:33;100420.34;;;5.36;45.26
49342;BME280;35210;41.606;-87.602;2022-11-15T01:16:06;100417.50;;;5.20;45.92
49342;BME280;35210;41.606;-87.602;2022-11-15T01:18:35;100430.44;;;5.01;46.84
49342;BME280;35210;41.606;-87.602;2022-11-15T01:21:11;100427.06;;;4.76;47.14
49342;BME280;35210;41.606;-87.602;2022-11-15T01:23:40;100428.25;;;4.90;46.65
49342;BME280;35210;41.606;-87.602;2022-11-15T01:26:11;100423.84;;;4.91;47.24
49342;BME280;35210;41.606;-87.602;2022-11-15T01:28:41;100409.34;;;4.82;47.01
49342;BME280;35210;41.606;-87.602;2022-11-15T01:31:12;100415.44;;;4.59;48.26
49342;BME280;35210;41.606;-87.602;2022-11-15T01:33:42;100416.25;;;4.61;47.98
49342;BME280;35210;41.606;-87.602;2022-11-15T01:36:15;100415.13;;;4.45;48.50
49342;BME280;35210;41.606;-87.602;2022-11-15T01:38:44;100418.28;;;4.53;48.24
49342;BME280;35210;41.606;-87.602;2022-11-15T01:41:16;100419.88;;;4.57;47.76
49342;BME280;35210;41.606;-87.602;2022-11-15T01:43:47;100421.53;;;4.60;47.94
49342;BME280;35210;41.606;-87.602;2022-11-15T01:46:24;100420.22;;;4.72;47.60
49342;BME280;35210;41.606;-87.602;2022-11-15T01:48:56;100433.53;;;4.66;48.04
49342;BME280;35210;41.606;-87.602;2022-11-15T01:51:29;100445.06;;;4.60;47.96
49342;BME280;35210;41.606;-87.602;2022-11-15T01:54:02;100448.25;;;4.68;47.90
49342;BME280;35210;41.606;-87.602;2022-11-15T01:56:37;100448.38;;;4.65;48.09
49342;BME280;35210;41.606;-87.602;2022-11-15T01:59:11;100447.28;;;4.71;48.56
49342;BME280;35210;41.606;-87.602;2022-11-15T02:01:39;100457.72;;;4.72;48.01
49342;BME280;35210;41.606;-87.602;2022-11-15T02:04:11;100464.59;;;4.75;47.71
49342;BME280;35210;41.606;-87.602;2022-11-15T02:06:43;100468.75;;;4.80;47.76
49342;BME280;35210;41.606;-87.602;2022-11-15T02:09:13;100463.09;;;4.68;48.14
49342;BME280;35210;41.606;-87.602;2022-11-15T02:11:47;100466.41;;;4.73;48.48
49342;BME280;35210;41.606;-87.602;2022-11-15T02:14:18;100466.28;;;4.76;48.54
49342;BME280;35210;41.606;-87.602;2022-11-15T02:16:54;100464.38;;;4.81;48.26
49342;BME280;35210;41.606;-87.602;2022-11-15T02:19:46;100466.59;;;4.91;47.88
49342;BME280;35210;41.606;-87.602;2022-11-15T02:22:35;100471.19;;;4.85;48.41
49342;BME280;35210;41.606;-87.602;2022-11-15T02:25:22;100471.94;;;4.88;47.71
49342;BME280;35210;41.606;-87.602;2022-11-15T02:28:21;100470.22;;;4.87;47.46
49342;BME280;35210;41.606;-87.602;2022-11-15T02:31:04;100470.38;;;4.59;48.94
49342;BME280;35210;41.606;-87.602;2022-11-15T02:33:38;100465.56;;;4.72;48.41
49342;BME280;35210;41.606;-87.602;2022-11-15T02:36:13;100479.44;;;4.74;48.50
49342;BME280;35210;41.606;-87.602;2022-11-15T02:38:46;100479.66;;;4.68;48.81
49342;BME280;35210;41.606;-87.602;2022-11-15T02:41:19;100475.38;;;4.66;49.05
49342;BME280;35210;41.606;-87.602;2022-11-15T02:43:54;100492.06;;;4.63;48.95
49342;BME280;35210;41.606;-87.602;2022-11-15T02:46:31;100494.50;;;4.68;48.76
49342;BME280;35210;41.606;-87.602;2022-11-15T02:49:19;100496.22;;;4.69;48.82
49342;BME280;35210;41.606;-87.602;2022-11-15T02:51:49;100493.22;;;4.79;48.68
49342;BME280;35210;41.606;-87.602;2022-11-15T02:54:22;100501.63;;;4.87;48.08
49342;BME280;35210;41.606;-87.602;2022-11-15T02:57:00;100510.81;;;4.99;47.55
49342;BME280;35210;41.606;-87.602;2022-11-15T03:00:00;100519.34;;;5.04;48.09
49342;BME280;35210;41.606;-87.602;2022-11-15T03:03:08;100522.59;;;5.11;47.94
49342;BME280;35210;41.606;-87.602;2022-11-15T03:05:49;100531.41;;;5.08;48.12
49342;BME280;35210;41.606;-87.602;2022-11-15T03:08:31;100533.22;;;5.06;47.83
49342;BME280;35210;41.606;-87.602;2022-11-15T03:11:03;100534.19;;;5.04;48.16
49342;BME280;35210;41.606;-87.602;2022-11-15T03:13:49;100535.78;;;5.08;48.32
49342;BME280;35210;41.606;-87.602;2022-11-15T03:16:25;100538.22;;;5.12;47.59
49342;BME280;35210;41.606;-87.602;2022-11-15T03:18:59;100544.16;;;5.17;47.99
49342;BME280;35210;41.606;-87.602;2022-11-15T03:21:32;100555.25;;;5.01;48.08
49342;BME280;35210;41.606;-87.602;2022-11-15T03:24:05;100564.81;;;5.02;48.09
49342;BME280;35210;41.606;-87.602;2022-11-15T03:26:37;100562.19;;;5.02;47.71
49342;BME280;35210;41.606;-87.602;2022-11-15T03:29:11;100577.31;;;4.93;48.08
49342;BME280;35210;41.606;-87.602;2022-11-15T03:31:44;100579.81;;;4.97;47.44
49342;BME280;35210;41.606;-87.602;2022-11-15T03:34:22;100573.94;;;4.90;47.67
49342;BME280;35210;41.606;-87.602;2022-11-15T03:36:54;100583.66;;;4.86;47.84
49342;BME280;35210;41.606;-87.602;2022-11-15T03:39:23;100582.53;;;4.93;47.84
49342;BME280;35210;41.606;-87.602;2022-11-15T03:41:59;100581.53;;;4.73;48.07
49342;BME280;35210;41.606;-87.602;2022-11-15T03:44:40;100584.47;;;4.63;48.55
49342;BME280;35210;41.606;-87.602;2022-11-15T03:47:12;100578.38;;;4.63;48.66
49342;BME280;35210;41.606;-87.602;2022-11-15T03:49:49;100582.69;;;4.64;48.32
49342;BME280;35210;41.606;-87.602;2022-11-15T03:52:19;100582.97;;;4.56;48.85
49342;BME280;35210;41.606;-87.602;2022-11-15T03:54:49;100582.09;;;4.56;48.71
49342;BME280;35210;41.606;-87.602;2022-11-15T03:57:18;100589.25;;;4.51;49.15
49342;BME280;35210;41.606;-87.602;2022-11-15T03:59:46;100590.91;;;4.28;49.24
49342;BME280;35210;41.606;-87.602;2022-11-15T04:02:15;100592.72;;;4.26;50.08
49342;BME280;35210;41.606;-87.602;2022-11-15T04:04:44;100590.81;;;4.32;49.40
49342;BME280;35210;41.606;-87.602;2022-11-15T04:07:12;100587.72;;;4.45;48.72
49342;BME280;35210;41.606;-87.602;2022-11-15T04:09:40;100581.00;;;4.38;49.23
49342;BME280;35210;41.606;-87.602;2022-11-15T04:12:22;100584.50;;;4.37;49.22
49342;BME280;35210;41.606;-87.602;2022-11-15T04:14:57;100586.22;;;4.38;49.29
49342;BME280;35210;41.606;-87.602;2022-11-15T04:17:35;100591.47;;;4.38;48.90
49342;BME280;35210;41.606;-87.602;2022-11-15T04:20:08;100593.91;;;4.43;49.68
49342;BME280;35210;41.606;-87.602;2022-11-15T04:22:55;100597.00;;;4.29;49.79
49342;BME280;35210;41.606;-87.602;2022-11-15T04:25:42;100596.88;;;4.32;49.56
49342;BME280;35210;41.606;-87.602;2022-11-15T04:28:11;100594.53;;;4.24;49.35
49342;BME280;35210;41.606;-87.602;2022-11-15T04:30:39;100591.69;;;4.04;49.06
49342;BME280;35210;41.606;-87.602;2022-11-15T04:33:08;100586.94;;;4.17;49.82
49342;BME280;35210;41.606;-87.602;2022-11-15T04:35:38;100583.09;;;4.01;50.44
49342;BME280;35210;41.606;-87.602;2022-11-15T04:38:07;100579.13;;;4.15;49.22
49342;BME280;35210;41.606;-87.602;2022-11-15T04:40:35;100576.94;;;4.29;49.32
49342;BME280;35210;41.606;-87.602;2022-11-15T04:43:04;100574.00;;;4.39;49.08
49342;BME280;35210;41.606;-87.602;2022-11-15T04:45:32;100562.75;;;4.37;49.26
49342;BME280;35210;41.606;-87.602;2022-11-15T04:48:01;100555.41;;;4.46;49.46
49342;BME280;35210;41.606;-87.602;2022-11-15T04:50:31;100547.03;;;4.61;48.83
49342;BME280;35210;41.606;-87.602;2022-11-15T04:53:01;100534.69;;;4.42;49.57
49342;BME280;35210;41.606;-87.602;2022-11-15T04:55:30;100541.31;;;4.50;49.37
49342;BME280;35210;41.606;-87.602;2022-11-15T04:57:59;100538.88;;;4.46;49.54
49342;BME280;35210;41.606;-87.602;2022-11-15T05:00:28;100551.38;;;4.62;48.62
49342;BME280;35210;41.606;-87.602;2022-11-15T05:02:57;100547.34;;;4.77;48.48
49342;BME280;35210;41.606;-87.602;2022-11-15T05:05:43;100527.28;;;4.78;48.73
49342;BME280;35210;41.606;-87.602;2022-11-15T05:08:13;100516.38;;;4.90;47.74
49342;BME280;35210;41.606;-87.602;2022-11-15T05:10:41;100531.38;;;4.85;48.52
49342;BME280;35210;41.606;-87.602;2022-11-15T05:13:09;100516.59;;;4.84;48.00
49342;BME280;35210;41.606;-87.602;2022-11-15T05:15:38;100517.50;;;4.58;47.98
49342;BME280;35210;41.606;-87.602;2022-11-15T05:18:11;100506.56;;;4.72;49.54
49342;BME280;35210;41.606;-87.602;2022-11-15T05:20:40;100496.75;;;4.53;49.15
49342;BME280;35210;41.606;-87.602;2022-11-15T05:23:08;100495.03;;;4.52;49.22
49342;BME280;35210;41.606;-87.602;2022-11-15T05:25:38;100488.56;;;4.62;48.75
49342;BME280;35210;41.606;-87.602;2022-11-15T05:28:06;100513.09;;;4.60;48.89
49342;BME280;35210;41.606;-87.602;2022-11-15T05:30:34;100505.03;;;4.66;49.34
49342;BME280;35210;41.606;-87.602;2022-11-15T05:33:03;100495.25;;;4.71;48.72
49342;BME280;35210;41.606;-87.602;2022-11-15T05:35:34;100480.88;;;4.83;48.62
49342;BME280;35210;41.606;-87.602;2022-11-15T05:38:06;100486.72;;;4.89;48.13
49342;BME280;35210;41.606;-87.602;2022-11-15T05:40:46;100495.66;;;4.84;48.24
49342;BME280;35210;41.606;-87.602;2022-11-15T05:43:16;100509.69;;;4.81;48.04
49342;BME280;35210;41.606;-87.602;2022-11-15T05:45:44;100518.00;;;4.69;48.22
49342;BME280;35210;41.606;-87.602;2022-11-15T05:48:13;100513.19;;;4.57;49.13
49342;BME280;35210;41.606;-87.602;2022-11-15T05:50:44;100506.59;;;4.22;48.74
49342;BME280;35210;41.606;-87.602;2022-11-15T05:53:16;100500.94;;;4.34;49.20
49342;BME280;35210;41.606;-87.602;2022-11-15T05:55:47;100501.44;;;4.45;48.73
49342;BME280;35210;41.606;-87.602;2022-11-15T05:58:17;100517.84;;;4.49;48.80
49342;BME280;35210;41.606;-87.602;2022-11-15T06:00:46;100520.50;;;4.47;48.92
49342;BME280;35210;41.606;-87.602;2022-11-15T06:03:15;100524.63;;;4.54;48.68
49342;BME280;35210;41.606;-87.602;2022-11-15T06:05:43;100517.47;;;4.59;48.43
49342;BME280;35210;41.606;-87.602;2022-11-15T06:08:12;100520.44;;;4.49;47.79
49342;BME280;35210;41.606;-87.602;2022-11-15T06:10:40;100527.09;;;4.34;48.90
49342;BME280;35210;41.606;-87.602;2022-11-15T06:13:11;100525.38;;;4.33;47.96
49342;BME280;35210;41.606;-87.602;2022-11-15T06:15:40;100518.88;;;4.45;48.11
49342;BME280;35210;41.606;-87.602;2022-11-15T06:18:10;100515.63;;;4.38;47.79
49342;BME280;35210;41.606;-87.602;2022-11-15T06:20:39;100519.91;;;4.41;48.58
49342;BME280;35210;41.606;-87.602;2022-11-15T06:23:08;100515.06;;;4.53;48.51
49342;BME280;35210;41.606;-87.602;2022-11-15T06:25:45;100507.22;;;4.53;47.98
49342;BME280;35210;41.606;-87.602;2022-11-15T06:28:16;100490.34;;;4.62;47.88
49342;BME280;35210;41.606;-87.602;2022-11-15T06:30:44;100494.50;;;4.68;47.44
49342;BME280;35210;41.606;-87.602;2022-11-15T06:33:13;100493.13;;;4.57;47.76
49342;BME280;35210;41.606;-87.602;2022-11-15T06:35:41;100484.78;;;4.46;48.13
49342;BME280;35210;41.606;-87.602;2022-11-15T06:38:11;100474.69;;;4.37;48.24
49342;BME280;35210;41.606;-87.602;2022-11-15T06:40:39;100471.34;;;4.57;47.54
49342;BME280;35210;41.606;-87.602;2022-11-15T06:43:09;100465.25;;;4.56;47.79
49342;BME280;35210;41.606;-87.602;2022-11-15T06:45:39;100453.03;;;4.57;47.14
49342;BME280;35210;41.606;-87.602;2022-11-15T06:48:11;100448.94;;;4.50;48.08
49342;BME280;35210;41.606;-87.602;2022-11-15T06:50:39;100443.31;;;4.37;47.18
49342;BME280;35210;41.606;-87.602;2022-11-15T06:53:07;100447.97;;;4.29;47.36
49342;BME280;35210;41.606;-87.602;2022-11-15T06:55:36;100441.81;;;4.30;47.00
49342;BME280;35210;41.606;-87.602;2022-11-15T06:58:04;100434.56;;;4.38;47.72
49342;BME280;35210;41.606;-87.602;2022-11-15T07:00:33;100439.69;;;4.41;47.67
49342;BME280;35210;41.606;-87.602;2022-11-15T07:03:04;100439.09;;;4.56;46.45
49342;BME280;35210;41.606;-87.602;2022-11-15T07:05:32;100420.09;;;4.51;47.13
49342;BME280;35210;41.606;-87.602;2022-11-15T07:08:01;100416.03;;;4.44;46.53
49342;BME280;35210;41.606;-87.602;2022-11-15T07:10:31;100422.19;;;4.43;47.01
49342;BME280;35210;41.606;-87.602;2022-11-15T07:13:00;100405.44;;;4.47;46.69
49342;BME280;35210;41.606;-87.602;2022-11-15T07:15:28;100400.78;;;4.55;46.72
49342;BME280;35210;41.606;-87.602;2022-11-15T07:18:00;100390.25;;;4.57;47.21
49342;BME280;35210;41.606;-87.602;2022-11-15T07:20:32;100391.38;;;4.50;47.31
49342;BME280;35210;41.606;-87.602;2022-11-15T07:23:00;100391.78;;;4.62;47.13
49342;BME280;35210;41.606;-87.602;2022-11-15T07:25:30;100394.56;;;4.58;47.22
49342;BME280;35210;41.606;-87.602;2022-11-15T07:27:59;100406.56;;;4.63;46.73
49342;BME280;35210;41.606;-87.602;2022-11-15T07:30:28;100411.00;;;4.61;46.85
49342;BME280;35210;41.606;-87.602;2022-11-15T07:32:57;100407.47;;;4.62;46.65
49342;BME280;35210;41.606;-87.602;2022-11-15T07:35:31;100415.38;;;4.61;47.00
49342;BME280;35210;41.606;-87.602;2022-11-15T07:38:01;100412.31;;;4.50;47.55
49342;BME280;35210;41.606;-87.602;2022-11-15T07:40:31;100405.56;;;4.68;46.63
49342;BME280;35210;41.606;-87.602;2022-11-15T07:43:00;100410.78;;;4.68;47.35
49342;BME280;35210;41.606;-87.602;2022-11-15T07:45:29;100413.75;;;4.82;46.76
49342;BME280;35210;41.606;-87.602;2022-11-15T07:48:01;100411.97;;;4.82;46.41
49342;BME280;35210;41.606;-87.602;2022-11-15T07:50:31;100411.00;;;4.85;47.13
49342;BME280;35210;41.606;-87.602;2022-11-15T07:53:00;100413.50;;;4.88;47.35
49342;BME280;35210;41.606;-87.602;2022-11-15T07:55:29;100413.44;;;4.89;47.70
49342;BME280;35210;41.606;-87.602;2022-11-15T07:58:01;100413.28;;;4.94;46.89
49342;BME280;35210;41.606;-87.602;2022-11-15T08:00:30;100414.34;;;4.88;46.79
49342;BME280;35210;41.606;-87.602;2022-11-15T08:03:03;100428.06;;;4.72;47.17
49342;BME280;35210;41.606;-87.602;2022-11-15T08:05:34;100413.97;;;4.76;46.70
49342;BME280;35210;41.606;-87.602;2022-11-15T08:08:03;100404.41;;;4.75;46.69
49342;BME280;35210;41.606;-87.602;2022-11-15T08:10:32;100400.47;;;4.86;46.64
49342;BME280;35210;41.606;-87.602;2022-11-15T08:13:02;100401.56;;;4.81;47.32
49342;BME280;35210;41.606;-87.602;2022-11-15T08:15:31;100400.66;;;4.82;46.75
49342;BME280;35210;41.606;-87.602;2022-11-15T08:18:02;100390.06;;;4.85;46.39
49342;BME280;35210;41.606;-87.602;2022-11-15T08:20:31;100394.50;;;4.83;47.04
49342;BME280;35210;41.606;-87.602;2022-11-15T08:23:03;100401.34;;;4.87;47.45
49342;BME280;35210;41.606;-87.602;2022-11-15T08:25:32;100401.84;;;4.97;46.71
49342;BME280;35210;41.606;-87.602;2022-11-15T08:28:03;100400.06;;;4.97;46.79
49342;BME280;35210;41.606;-87.602;2022-11-15T08:30:35;100401.09;;;4.93;45.88
49342;BME280;35210;41.606;-87.602;2022-11-15T08:33:10;100403.84;;;4.90;46.70
49342;BME280;35210;41.606;-87.602;2022-11-15T08:35:39;100409.97;;;4.89;46.53
49342;BME280;35210;41.606;-87.602;2022-11-15T08:38:10;100412.81;;;4.83;46.76
49342;BME280;35210;41.606;-87.602;2022-11-15T08:40:39;100409.94;;;4.67;47.97
49342;BME280;35210;41.606;-87.602;2022-11-15T08:43:09;100408.72;;;4.76;47.86
49342;BME280;35210;41.606;-87.602;2022-11-15T08:45:37;100414.25;;;4.91;46.16
49342;BME280;35210;41.606;-87.602;2022-11-15T08:48:05;100411.91;;;4.84;46.92
49342;BME280;35210;41.606;-87.602;2022-11-15T08:50:35;100411.84;;;4.85;46.78
49342;BME280;35210;41.606;-87.602;2022-11-15T08:53:06;100406.34;;;4.93;47.53
49342;BME280;35210;41.606;-87.602;2022-11-15T08:55:38;100413.28;;;4.94;46.80
49342;BME280;35210;41.606;-87.602;2022-11-15T08:58:07;100414.25;;;4.91;47.37
49342;BME280;35210;41.606;-87.602;2022-11-15T09:00:35;100410.09;;;4.86;47.92
49342;BME280;35210;41.606;-87.602;2022-11-15T09:03:04;100412.38;;;4.95;47.38
49342;BME280;35210;41.606;-87.602;2022-11-15T09:05:32;100409.63;;;4.98;47.29
49342;BME280;35210;41.606;-87.602;2022-11-15T09:08:04;100409.47;;;4.79;48.03
49342;BME280;35210;41.606;-87.602;2022-11-15T09:10:32;100417.50;;;4.75;47.71
49342;BME280;35210;41.606;-87.602;2022-11-15T09:13:05;100417.25;;;4.81;48.51
49342;BME280;35210;41.606;-87.602;2022-11-15T09:15:34;100415.66;;;4.77;47.79
49342;BME280;35210;41.606;-87.602;2022-11-15T09:18:04;100410.28;;;4.81;47.65
49342;BME280;35210;41.606;-87.602;2022-11-15T09:20:32;100423.75;;;4.94;47.76
49342;BME280;35210;41.606;-87.602;2022-11-15T09:23:06;100421.69;;;5.02;47.18
49342;BME280;35210;41.606;-87.602;2022-11-15T09:25:39;100410.97;;;5.08;46.77
49342;BME280;35210;41.606;-87.602;2022-11-15T09:28:09;100413.47;;;5.11;47.68
49342;BME280;35210;41.606;-87.602;2022-11-15T09:30:37;100408.72;;;4.99;47.47
49342;BME280;35210;41.606;-87.602;2022-11-15T09:33:07;100404.56;;;4.93;48.02
49342;BME280;35210;41.606;-87.602;2022-11-15T09:35:35;100401.47;;;5.06;47.40
49342;BME280;35210;41.606;-87.602;2022-11-15T09:38:05;100398.91;;;5.04;47.58
49342;BME280;35210;41.606;-87.602;2022-11-15T09:40:36;100401.50;;;4.82;48.07
49342;BME280;35210;41.606;-87.602;2022-11-15T09:46:04;100391.44;;;4.72;49.03
49342;BME280;35210;41.606;-87.602;2022-11-15T09:48:53;100392.75;;;4.60;49.56
49342;BME280;35210;41.606;-87.602;2022-11-15T09:51:29;100399.88;;;4.33;52.97
49342;BME280;35210;41.606;-87.602;2022-11-15T09:54:13;100402.34;;;4.13;55.81
49342;BME280;35210;41.606;-87.602;2022-11-15T09:56:45;100404.06;;;4.14;57.55
49342;BME280;35210;41.606;-87.602;2022-11-15T09:59:23;100400.13;;;3.76;59.73
49342;BME280;35210;41.606;-87.602;2022-11-15T10:02:14;100408.03;;;3.74;60.80
49342;BME280;35210;41.606;-87.602;2022-11-15T10:04:45;100411.22;;;3.82;61.30
49342;BME280;35210;41.606;-87.602;2022-11-15T10:07:19;100413.03;;;3.80;61.86
49342;BME280;35210;41.606;-87.602;2022-11-15T10:09:54;100414.75;;;3.81;62.31
49342;BME280;35210;41.606;-87.602;2022-11-15T10:12:28;100421.31;;;3.68;64.63
49342;BME280;35210;41.606;-87.602;2022-11-15T10:15:02;100412.28;;;3.52;68.13
49342;BME280;35210;41.606;-87.602;2022-11-15T10:17:52;100415.66;;;3.55;68.68
49342;BME280;35210;41.606;-87.602;2022-11-15T10:20:25;100420.97;;;3.52;70.94
49342;BME280;35210;41.606;-87.602;2022-11-15T10:22:56;100428.28;;;3.41;72.20
49342;BME280;35210;41.606;-87.602;2022-11-15T10:25:30;100426.09;;;3.27;73.88
49342;BME280;35210;41.606;-87.602;2022-11-15T10:28:01;100430.13;;;3.38;75.53
49342;BME280;35210;41.606;-87.602;2022-11-15T10:30:35;100423.81;;;3.45;75.70
49342;BME280;35210;41.606;-87.602;2022-11-15T10:33:20;100420.00;;;3.55;76.50
49342;BME280;35210;41.606;-87.602;2022-11-15T10:36:15;100423.22;;;3.63;76.72
49342;BME280;35210;41.606;-87.602;2022-11-15T10:38:56;100426.53;;;3.68;76.20
49342;BME280;35210;41.606;-87.602;2022-11-15T10:41:45;100417.91;;;3.66;77.34
49342;BME280;35210;41.606;-87.602;2022-11-15T10:44:25;100416.72;;;3.75;77.73
49342;BME280;35210;41.606;-87.602;2022-11-15T10:47:22;100405.41;;;3.74;77.26
49342;BME280;35210;41.606;-87.602;2022-11-15T10:50:00;100405.00;;;3.86;77.61
49342;BME280;35210;41.606;-87.602;2022-11-15T10:52:30;100408.22;;;3.94;77.61
49342;BME280;35210;41.606;-87.602;2022-11-15T10:55:03;100390.72;;;3.96;77.49
49342;BME280;35210;41.606;-87.602;2022-11-15T10:57:36;100391.63;;;3.95;78.46
49342;BME280;35210;41.606;-87.602;2022-11-15T11:00:07;100392.25;;;4.02;78.00
49342;BME280;35210;41.606;-87.602;2022-11-15T11:02:59;100379.94;;;4.06;77.92
49342;BME280;35210;41.606;-87.602;2022-11-15T11:05:31;100382.44;;;4.09;78.43
49342;BME280;35210;41.606;-87.602;2022-11-15T11:08:04;100375.28;;;4.14;78.25
49342;BME280;35210;41.606;-87.602;2022-11-15T11:10:33;100359.63;;;4.14;78.12
49342;BME280;35210;41.606;-87.602;2022-11-15T11:13:15;100351.78;;;4.14;78.97
49342;BME280;35210;41.606;-87.602;2022-11-15T11:15:55;100344.00;;;4.12;78.69
49342;BME280;35210;41.606;-87.602;2022-11-15T11:18:34;100339.38;;;4.19;77.95
49342;BME280;35210;41.606;-87.602;2022-11-15T11:21:10;100335.50;;;4.06;78.59
49342;BME280;35210;41.606;-87.602;2022-11-15T11:23:52;100325.53;;;4.17;78.51
49342;BME280;35210;41.606;-87.602;2022-11-15T11:26:35;100323.94;;;4.13;78.49
49342;BME280;35210;41.606;-87.602;2022-11-15T11:29:25;100328.47;;;4.08;79.08
49342;BME280;35210;41.606;-87.602;2022-11-15T11:32:03;100324.38;;;4.01;80.60
49342;BME280;35210;41.606;-87.602;2022-11-15T11:34:49;100322.59;;;4.01;80.24
49342;BME280;35210;41.606;-87.602;2022-11-15T11:37:30;100309.03;;;3.91;80.38
49342;BME280;35210;41.606;-87.602;2022-11-15T11:40:14;100300.16;;;3.95;80.73
49342;BME280;35210;41.606;-87.602;2022-11-15T11:42:53;100293.34;;;3.91;80.82
49342;BME280;35210;41.606;-87.602;2022-11-15T11:45:42;100294.31;;;3.89;80.63
49342;BME280;35210;41.606;-87.602;2022-11-15T11:48:23;100293.63;;;3.84;82.25
49342;BME280;35210;41.606;-87.602;2022-11-15T11:51:01;100295.16;;;3.89;80.92
49342;BME280;35210;41.606;-87.602;2022-11-15T11:53:39;100299.69;;;3.84;82.57
49342;BME280;35210;41.606;-87.602;2022-11-15T11:56:17;100296.16;;;3.85;82.65
49342;BME280;35210;41.606;-87.602;2022-11-15T11:58:48;100295.09;;;3.91;82.09
49342;BME280;35210;41.606;-87.602;2022-11-15T12:01:23;100285.56;;;3.90;81.79
49342;BME280;35210;41.606;-87.602;2022-11-15T12:03:59;100288.84;;;3.95;82.43
49342;BME280;35210;41.606;-87.602;2022-11-15T12:06:35;100283.81;;;4.14;81.27
49342;BME280;35210;41.606;-87.602;2022-11-15T12:09:13;100282.34;;;4.07;81.65
49342;BME280;35210;41.606;-87.602;2022-11-15T12:11:52;100285.97;;;4.03;82.63
49342;BME280;35210;41.606;-87.602;2022-11-15T12:14:29;100280.63;;;4.06;83.22
49342;BME280;35210;41.606;-87.602;2022-11-15T12:16:59;100278.69;;;4.11;82.65
49342;BME280;35210;41.606;-87.602;2022-11-15T12:19:29;100269.03;;;4.13;83.04
49342;BME280;35210;41.606;-87.602;2022-11-15T12:22:03;100267.00;;;4.21;82.63
49342;BME280;35210;41.606;-87.602;2022-11-15T12:24:38;100264.03;;;4.30;82.18
49342;BME280;35210;41.606;-87.602;2022-11-15T12:27:15;100260.38;;;4.34;82.10
49342;BME280;35210;41.606;-87.602;2022-11-15T12:29:46;100257.09;;;4.29;81.68
49342;BME280;35210;41.606;-87.602;2022-11-15T12:32:24;100257.03;;;4.31;82.87
49342;BME280;35210;41.606;-87.602;2022-11-15T12:34:54;100256.88;;;4.35;82.17
49342;BME280;35210;41.606;-87.602;2022-11-15T12:37:54;100254.38;;;4.32;82.52
49342;BME280;35210;41.606;-87.602;2022-11-15T12:40:31;100248.09;;;4.36;82.79
49342;BME280;35210;41.606;-87.602;2022-11-15T12:43:35;100246.06;;;4.44;83.02
49342;BME280;35210;41.606;-87.602;2022-11-15T12:46:12;100245.91;;;4.47;82.24
49342;BME280;35210;41.606;-87.602;2022-11-15T12:48:47;100242.31;;;4.50;81.32
49342;BME280;35210;41.606;-87.602;2022-11-15T12:51:16;100241.03;;;4.60;78.18
49342;BME280;35210;41.606;-87.602;2022-11-15T12:53:46;100236.00;;;4.55;77.08
49342;BME280;35210;41.606;-87.602;2022-11-15T12:56:25;100234.47;;;4.50;74.77
49342;BME280;35210;41.606;-87.602;2022-11-15T12:58:56;100233.88;;;4.43;74.88
49342;BME280;35210;41.606;-87.602;2022-11-15T13:01:57;100226.97;;;4.42;75.03
49342;BME280;35210;41.606;-87.602;2022-11-15T13:04:28;100225.78;;;4.49;74.78
49342;BME280;35210;41.606;-87.602;2022-11-15T13:07:00;100224.78;;;4.52;74.15
49342;BME280;35210;41.606;-87.602;2022-11-15T13:12:51;100227.09;;;4.59;71.67
49342;BME280;35210;41.606;-87.602;2022-11-15T13:15:35;100220.84;;;4.63;72.02
49342;BME280;35210;41.606;-87.602;2022-11-15T13:18:37;100220.66;;;4.68;69.86